Time;durP1;ratioP1;P1;durP2;ratioP2;P2;SDS_P1;SDS_P2;PMS_P1;PMS_P2;Temp;Humidity;BMP_temperature;BMP_pressure;BME280_temperature;BME280_humidity;BME280_pressure;Samples;Min_cycle;Max_cycle;Signal;HPM_P1;HPM_P2
2021/10/13 00:00:53;;;;;;;1.60;1.30;;;7.20;98.20;;;;;;4970758;28;20496;-80
2021/10/13 00:03:20;;;;;;;1.63;1.33;;;7.20;98.20;;;;;;5000423;28;20457;-79
2021/10/13 00:05:46;;;;;;;1.60;1.30;;;7.20;98.20;;;;;;4971193;28;20835;-80
2021/10/13 00:08:13;;;;;;;1.63;1.30;;;7.20;98.20;;;;;;4986369;28;20497;-80
2021/10/13 00:10:42;;;;;;;1.63;1.30;;;7.20;98.20;;;;;;4980617;28;20819;-80
2021/10/13 00:13:09;;;;;;;1.63;1.30;;;7.20;98.20;;;;;;4977879;28;20481;-80
2021/10/13 00:15:35;;;;;;;1.60;1.30;;;7.10;98.20;;;;;;4975926;28;20472;-79
2021/10/13 00:18:02;;;;;;;1.60;1.20;;;7.10;98.20;;;;;;4984219;28;20489;-80
2021/10/13 00:20:29;;;;;;;1.60;1.30;;;7.10;98.20;;;;;;4981646;28;20470;-80
2021/10/13 00:22:56;;;;;;;1.60;1.30;;;7.10;98.20;;;;;;4982460;28;20853;-79
2021/10/13 00:25:23;;;;;;;1.60;1.30;;;7.10;98.20;;;;;;4974901;28;20477;-79
2021/10/13 00:27:51;;;;;;;1.70;1.43;;;7.10;98.20;;;;;;4981621;28;20475;-80
2021/10/13 00:30:18;;;;;;;1.70;1.30;;;7.10;98.20;;;;;;4983036;28;20468;-79
2021/10/13 00:32:45;;;;;;;1.60;1.30;;;7.10;98.20;;;;;;4984748;28;20490;-79
2021/10/13 00:35:12;;;;;;;1.60;1.30;;;7.10;98.20;;;;;;4972564;28;20472;-80
2021/10/13 00:37:39;;;;;;;1.60;1.30;;;7.10;98.20;;;;;;4973787;28;20493;-79
2021/10/13 00:40:07;;;;;;;1.60;1.30;;;7.10;98.20;;;;;;4972310;28;20486;-79
2021/10/13 00:42:34;;;;;;;1.60;1.30;;;7.10;98.20;;;;;;4982249;28;20503;-80
2021/10/13 00:45:02;;;;;;;1.60;1.30;;;7.00;98.20;;;;;;4971695;28;20474;-79
2021/10/13 00:47:29;;;;;;;1.60;1.30;;;7.00;98.20;;;;;;4977510;28;20832;-79
2021/10/13 00:49:55;;;;;;;1.60;1.20;;;7.10;98.20;;;;;;4977317;28;20486;-80
2021/10/13 00:52:22;;;;;;;1.63;1.40;;;7.10;98.20;;;;;;4975796;28;20484;-79
2021/10/13 00:54:49;;;;;;;1.63;1.40;;;7.10;98.20;;;;;;4971998;28;20481;-79
2021/10/13 00:57:16;;;;;;;1.60;1.30;;;7.10;98.20;;;;;;4974995;28;20484;-79
2021/10/13 00:59:43;;;;;;;1.60;1.30;;;7.10;98.20;;;;;;4991270;28;20477;-80
2021/10/13 01:02:16;;;;;;;1.60;1.30;;;7.00;98.20;;;;;;4975344;28;20481;-80
2021/10/13 01:05:01;;;;;;;1.70;1.50;;;7.00;98.20;;;;;;4984972;28;20829;-80
2021/10/13 01:07:36;;;;;;;1.60;1.30;;;7.00;98.20;;;;;;4969442;28;20491;-79
2021/10/13 01:10:12;;;;;;;1.63;1.30;;;7.00;98.20;;;;;;4982117;28;20515;-79
2021/10/13 01:12:52;;;;;;;1.60;1.30;;;7.00;98.20;;;;;;4979094;28;20484;-79
2021/10/13 01:15:29;;;;;;;1.60;1.40;;;6.90;98.20;;;;;;4945107;28;20556;-80
2021/10/13 01:18:06;;;;;;;1.60;1.30;;;6.90;98.20;;;;;;4981585;28;20577;-80
2021/10/13 01:20:51;;;;;;;1.60;1.30;;;6.90;98.20;;;;;;4982802;28;20469;-79
2021/10/13 01:23:43;;;;;;;1.60;1.20;;;6.90;98.20;;;;;;4967192;28;20508;-79
2021/10/13 01:26:19;;;;;;;1.60;1.30;;;6.90;98.20;;;;;;4969881;28;20998;-79
2021/10/13 01:28:50;;;;;;;1.63;1.30;;;6.80;98.20;;;;;;4982295;28;20540;-79
2021/10/13 01:31:20;;;;;;;1.60;1.33;;;6.80;98.20;;;;;;4965197;28;20484;-79
2021/10/13 01:33:53;;;;;;;1.60;1.30;;;6.80;98.20;;;;;;4990526;28;20494;-79
2021/10/13 01:36:29;;;;;;;1.70;1.40;;;6.80;98.20;;;;;;4973481;28;20928;-79
2021/10/13 01:38:58;;;;;;;1.60;1.20;;;6.80;98.20;;;;;;4982544;28;21000;-79
2021/10/13 01:41:26;;;;;;;1.60;1.30;;;6.80;98.20;;;;;;4972424;28;20488;-79
2021/10/13 01:43:57;;;;;;;1.60;1.30;;;6.80;98.20;;;;;;4987596;28;20973;-80
2021/10/13 01:46:25;;;;;;;1.60;1.30;;;6.80;98.20;;;;;;4970614;28;20997;-79
2021/10/13 01:48:54;;;;;;;1.63;1.30;;;6.80;98.20;;;;;;4987559;28;20570;-80
2021/10/13 01:51:22;;;;;;;1.63;1.30;;;6.80;98.20;;;;;;4971417;28;20778;-79
2021/10/13 01:53:50;;;;;;;1.60;1.30;;;6.80;98.20;;;;;;4982603;28;20500;-79
2021/10/13 01:56:18;;;;;;;1.60;1.30;;;6.80;98.20;;;;;;4970058;28;20485;-79
2021/10/13 01:58:47;;;;;;;1.60;1.30;;;6.80;98.20;;;;;;4987511;28;20800;-79
2021/10/13 02:01:18;;;;;;;1.63;1.30;;;6.80;98.20;;;;;;4974331;28;20753;-79
2021/10/13 02:03:47;;;;;;;1.60;1.30;;;6.70;98.20;;;;;;4982925;28;20468;-79
2021/10/13 02:06:17;;;;;;;1.70;1.30;;;6.70;98.20;;;;;;4977107;28;20524;-79
2021/10/13 02:08:45;;;;;;;1.60;1.30;;;6.70;98.20;;;;;;4980489;28;20916;-79
2021/10/13 02:11:12;;;;;;;1.60;1.30;;;6.70;98.20;;;;;;4970954;28;21093;-79
2021/10/13 02:13:40;;;;;;;1.60;1.40;;;6.70;98.20;;;;;;4984599;28;20492;-80
2021/10/13 02:16:09;;;;;;;1.60;1.30;;;6.70;98.20;;;;;;4971894;28;20975;-80
2021/10/13 02:18:40;;;;;;;1.60;1.30;;;6.60;98.20;;;;;;4985536;28;20486;-79
2021/10/13 02:21:07;;;;;;;1.60;1.30;;;6.60;98.20;;;;;;4967578;28;20641;-79
2021/10/13 02:23:36;;;;;;;1.60;1.30;;;6.60;98.20;;;;;;4985069;28;20474;-79
2021/10/13 02:26:08;;;;;;;1.67;1.30;;;6.60;98.20;;;;;;4967087;28;20469;-79
2021/10/13 02:28:40;;;;;;;1.60;1.30;;;6.60;98.20;;;;;;4983706;28;20490;-80
2021/10/13 02:31:06;;;;;;;1.60;1.30;;;6.70;98.20;;;;;;4975194;28;20801;-79
2021/10/13 02:33:33;;;;;;;1.60;1.30;;;6.70;98.20;;;;;;4986390;28;20491;-79
2021/10/13 02:36:01;;;;;;;1.70;1.50;;;6.70;98.20;;;;;;4965089;28;20553;-79
2021/10/13 02:38:29;;;;;;;1.60;1.30;;;6.70;98.20;;;;;;4986347;28;20572;-79
2021/10/13 02:40:56;;;;;;;1.60;1.30;;;6.70;98.20;;;;;;4971345;28;20489;-80
2021/10/13 02:43:23;;;;;;;1.67;1.40;;;6.70;98.20;;;;;;4989472;28;20466;-79
2021/10/13 02:45:57;;;;;;;1.60;1.37;;;6.70;98.20;;;;;;4962383;28;21059;-80
2021/10/13 02:48:28;;;;;;;1.60;1.30;;;6.70;98.20;;;;;;4983935;28;20487;-79
2021/10/13 02:51:02;;;;;;;1.60;1.30;;;6.80;98.20;;;;;;4964468;28;20834;-79
2021/10/13 02:53:36;;;;;;;1.60;1.30;;;6.80;98.20;;;;;;4988745;28;20486;-78
2021/10/13 02:56:12;;;;;;;1.60;1.30;;;6.80;98.20;;;;;;4963212;28;20458;-79
2021/10/13 02:58:42;;;;;;;1.63;1.30;;;6.80;98.20;;;;;;4986289;28;20488;-78
2021/10/13 03:01:15;;;;;;;1.60;1.40;;;6.80;98.20;;;;;;4961703;28;20489;-79
2021/10/13 03:03:48;;;;;;;1.60;1.30;;;6.80;98.20;;;;;;4982093;28;20473;-80
2021/10/13 03:06:17;;;;;;;1.67;1.30;;;6.80;98.20;;;;;;4973481;28;21018;-78
2021/10/13 03:08:48;;;;;;;1.70;1.50;;;6.80;98.20;;;;;;4981225;28;20482;-79
2021/10/13 03:11:17;;;;;;;1.60;1.20;;;6.80;98.20;;;;;;4964807;28;20881;-80
2021/10/13 03:13:47;;;;;;;1.60;1.30;;;6.70;98.20;;;;;;4976492;28;20481;-78
2021/10/13 03:16:16;;;;;;;1.60;1.30;;;6.70;98.20;;;;;;4962842;28;21190;-78
2021/10/13 03:18:44;;;;;;;1.60;1.30;;;6.70;98.20;;;;;;4988508;28;20485;-80
2021/10/13 03:21:11;;;;;;;1.70;1.50;;;6.70;98.20;;;;;;4964404;28;20500;-80
2021/10/13 03:23:38;;;;;;;1.60;1.30;;;6.70;98.20;;;;;;4976351;28;20477;-78
2021/10/13 03:26:07;;;;;;;1.63;1.40;;;6.70;98.20;;;;;;4967121;28;21013;-79
2021/10/13 03:28:41;;;;;;;1.67;1.30;;;6.70;98.20;;;;;;4986029;28;20855;-79
2021/10/13 03:31:11;;;;;;;1.60;1.40;;;6.60;98.20;;;;;;4969078;28;20485;-79
2021/10/13 03:33:38;;;;;;;1.60;1.30;;;6.60;98.20;;;;;;4978181;28;20462;-79
2021/10/13 03:36:07;;;;;;;1.60;1.30;;;6.50;98.20;;;;;;4971721;28;20468;-80
2021/10/13 03:38:34;;;;;;;1.60;1.30;;;6.60;98.20;;;;;;4984334;28;20492;-80
2021/10/13 03:41:01;;;;;;;1.60;1.33;;;6.50;98.20;;;;;;4957564;28;20489;-80
2021/10/13 03:43:29;;;;;;;1.60;1.40;;;6.50;98.20;;;;;;4986747;28;20478;-79
2021/10/13 03:45:56;;;;;;;1.60;1.30;;;6.50;98.20;;;;;;4979122;28;20461;-80
2021/10/13 03:48:23;;;;;;;1.70;1.43;;;6.50;98.20;;;;;;4992305;28;20869;-80
2021/10/13 03:50:50;;;;;;;1.63;1.40;;;6.40;98.20;;;;;;4967384;28;20461;-79
2021/10/13 03:53:17;;;;;;;1.63;1.40;;;6.40;98.20;;;;;;4988904;28;20466;-79
2021/10/13 03:55:44;;;;;;;1.60;1.30;;;6.40;98.20;;;;;;4975080;28;20485;-78
2021/10/13 03:58:10;;;;;;;1.70;1.50;;;6.40;98.20;;;;;;4974693;28;20497;-77
2021/10/13 04:00:38;;;;;;;1.67;1.40;;;6.50;98.20;;;;;;4971136;28;20866;-77
2021/10/13 04:03:05;;;;;;;1.60;1.37;;;6.50;98.20;;;;;;4975466;28;20493;-79
2021/10/13 04:05:32;;;;;;;1.60;1.30;;;6.60;98.20;;;;;;4971927;28;20470;-79
2021/10/13 04:07:59;;;;;;;1.60;1.30;;;6.60;98.20;;;;;;4982331;28;20918;-81
2021/10/13 04:10:26;;;;;;;1.60;1.20;;;6.70;98.20;;;;;;4976063;28;20466;-80
2021/10/13 04:12:53;;;;;;;1.60;1.30;;;6.70;98.20;;;;;;4971584;28;20575;-80
2021/10/13 04:15:19;;;;;;;1.60;1.30;;;6.70;98.20;;;;;;4977452;28;21011;-79
2021/10/13 04:17:47;;;;;;;1.60;1.37;;;6.70;98.20;;;;;;4976360;28;20724;-79
2021/10/13 04:20:14;;;;;;;1.60;1.20;;;6.80;98.20;;;;;;4972181;28;20492;-77
2021/10/13 04:22:41;;;;;;;1.67;1.40;;;6.80;98.20;;;;;;4966801;28;20982;-80
2021/10/13 04:25:09;;;;;;;1.63;1.40;;;6.80;98.20;;;;;;4978345;28;20519;-80
2021/10/13 04:27:36;;;;;;;1.70;1.50;;;6.80;98.20;;;;;;4981993;28;20480;-77
2021/10/13 04:30:04;;;;;;;1.67;1.30;;;6.90;98.20;;;;;;4982743;28;20860;-78
2021/10/13 04:32:31;;;;;;;1.70;1.37;;;6.90;98.20;;;;;;4986793;28;20484;-79
2021/10/13 04:35:01;;;;;;;1.60;1.30;;;6.90;98.20;;;;;;4989501;28;20504;-77
2021/10/13 04:37:27;;;;;;;1.60;1.20;;;6.90;98.20;;;;;;4969125;28;20494;-80
2021/10/13 04:39:54;;;;;;;1.60;1.30;;;7.00;98.20;;;;;;4974555;28;21016;-79
2021/10/13 04:42:21;;;;;;;1.70;1.50;;;7.00;98.20;;;;;;4982972;28;20790;-79
2021/10/13 04:44:48;;;;;;;1.60;1.30;;;7.10;98.20;;;;;;4974256;28;20465;-80
2021/10/13 04:47:15;;;;;;;1.63;1.30;;;7.10;98.20;;;;;;4981633;28;20862;-80
2021/10/13 04:49:42;;;;;;;1.60;1.30;;;7.10;98.20;;;;;;4975122;28;20914;-81
2021/10/13 04:52:10;;;;;;;1.60;1.30;;;7.20;98.20;;;;;;4978327;28;20898;-80
2021/10/13 04:54:37;;;;;;;1.60;1.30;;;7.20;98.20;;;;;;4985674;28;20490;-78
2021/10/13 04:57:04;;;;;;;1.60;1.30;;;7.20;98.20;;;;;;4974506;28;20521;-81
2021/10/13 04:59:31;;;;;;;1.70;1.40;;;7.20;98.20;;;;;;4979753;28;20497;-81
2021/10/13 05:01:57;;;;;;;1.60;1.30;;;7.20;98.20;;;;;;4979482;28;20601;-81
2021/10/13 05:04:25;;;;;;;1.60;1.30;;;7.20;98.20;;;;;;4981754;28;20469;-79
2021/10/13 05:06:51;;;;;;;1.63;1.47;;;7.20;98.20;;;;;;4975510;28;20508;-79
2021/10/13 05:09:20;;;;;;;1.70;1.40;;;7.20;98.20;;;;;;4986047;28;20516;-80
2021/10/13 05:11:47;;;;;;;1.60;1.30;;;7.20;98.20;;;;;;4979858;28;20616;-78
2021/10/13 05:14:16;;;;;;;1.60;1.33;;;7.20;98.20;;;;;;4993923;28;20466;-78
2021/10/13 05:16:43;;;;;;;1.70;1.30;;;7.20;98.20;;;;;;4973116;28;20539;-80
2021/10/13 05:19:10;;;;;;;1.60;1.20;;;7.20;98.20;;;;;;4986719;28;20877;-80
2021/10/13 05:21:38;;;;;;;1.63;1.33;;;7.20;98.20;;;;;;4979652;28;20496;-81
2021/10/13 05:24:08;;;;;;;1.70;1.40;;;7.10;98.20;;;;;;4991273;28;20472;-79
2021/10/13 05:26:37;;;;;;;1.63;1.30;;;7.10;98.20;;;;;;4971032;28;20491;-81
2021/10/13 05:29:07;;;;;;;1.60;1.30;;;7.10;98.20;;;;;;4989235;28;20575;-80
2021/10/13 05:31:34;;;;;;;1.60;1.30;;;7.10;98.20;;;;;;4974527;28;20563;-79
2021/10/13 05:34:02;;;;;;;1.60;1.20;;;7.10;98.20;;;;;;4994096;28;20657;-79
2021/10/13 05:36:28;;;;;;;1.60;1.30;;;7.20;98.20;;;;;;4982881;28;20892;-79
2021/10/13 05:38:56;;;;;;;1.70;1.40;;;7.20;98.20;;;;;;4988734;28;20488;-78
2021/10/13 05:41:23;;;;;;;1.60;1.30;;;7.20;98.20;;;;;;4966287;28;20860;-78
2021/10/13 05:43:54;;;;;;;1.60;1.30;;;7.20;98.20;;;;;;4986222;28;20473;-79
2021/10/13 05:46:21;;;;;;;1.60;1.30;;;7.20;98.20;;;;;;4973837;28;20758;-78
2021/10/13 05:48:48;;;;;;;1.60;1.30;;;7.20;98.20;;;;;;4993521;28;20567;-81
2021/10/13 05:51:14;;;;;;;1.60;1.30;;;7.10;98.20;;;;;;4967475;28;20687;-81
2021/10/13 05:53:41;;;;;;;1.60;1.30;;;7.10;98.20;;;;;;4985539;28;20469;-81
2021/10/13 05:56:08;;;;;;;1.60;1.20;;;7.10;98.20;;;;;;4969073;28;20487;-79
2021/10/13 05:58:35;;;;;;;1.63;1.30;;;7.10;98.20;;;;;;4994793;28;20519;-81
2021/10/13 06:01:03;;;;;;;1.67;1.40;;;7.10;98.20;;;;;;4972979;28;20535;-81
2021/10/13 06:03:31;;;;;;;1.60;1.30;;;7.10;98.20;;;;;;4992116;28;20470;-80
2021/10/13 06:05:58;;;;;;;1.70;1.40;;;7.10;98.20;;;;;;4977624;28;20460;-81
2021/10/13 06:08:25;;;;;;;1.70;1.40;;;7.00;98.20;;;;;;4997467;28;20484;-78
2021/10/13 06:10:52;;;;;;;1.67;1.37;;;7.00;98.20;;;;;;4973094;28;20462;-79
2021/10/13 06:13:19;;;;;;;1.60;1.30;;;7.00;98.20;;;;;;4992546;28;20849;-79
2021/10/13 06:15:48;;;;;;;1.60;1.30;;;7.00;98.20;;;;;;4974565;28;20482;-81
2021/10/13 06:18:16;;;;;;;1.60;1.30;;;7.00;98.20;;;;;;4977527;28;20492;-80
2021/10/13 06:20:43;;;;;;;1.60;1.30;;;7.00;98.20;;;;;;4986243;28;20463;-80
2021/10/13 06:23:10;;;;;;;1.60;1.37;;;7.00;98.20;;;;;;4984475;28;20576;-78
2021/10/13 06:25:36;;;;;;;1.60;1.30;;;7.00;98.20;;;;;;4972131;28;20460;-80
2021/10/13 06:28:03;;;;;;;1.70;1.40;;;7.00;98.20;;;;;;4970573;28;21158;-80
2021/10/13 06:30:32;;;;;;;1.60;1.33;;;7.10;98.20;;;;;;4968998;28;21001;-79
2021/10/13 06:32:59;;;;;;;1.60;1.30;;;7.10;98.20;;;;;;4988148;28;20484;-80
2021/10/13 06:35:27;;;;;;;1.63;1.40;;;7.20;98.20;;;;;;4978623;28;20494;-79
2021/10/13 06:37:54;;;;;;;1.60;1.23;;;7.30;98.20;;;;;;4975768;28;20508;-81
2021/10/13 06:40:21;;;;;;;1.60;1.30;;;7.40;98.20;;;;;;4977361;28;20473;-78
2021/10/13 06:42:48;;;;;;;1.60;1.20;;;7.60;98.20;;;;;;4977512;28;20591;-78
2021/10/13 06:45:15;;;;;;;1.60;1.30;;;7.70;98.20;;;;;;4968009;28;20466;-77
2021/10/13 06:47:42;;;;;;;1.60;1.30;;;7.90;98.20;;;;;;4978757;28;20589;-81
2021/10/13 06:50:10;;;;;;;1.60;1.27;;;8.00;98.20;;;;;;4972911;28;20489;-79
2021/10/13 06:52:38;;;;;;;1.60;1.30;;;8.10;98.20;;;;;;4981647;28;20500;-78
2021/10/13 06:55:06;;;;;;;1.60;1.30;;;8.30;98.20;;;;;;4967959;28;20504;-80
2021/10/13 06:57:33;;;;;;;1.60;1.27;;;8.40;98.20;;;;;;4973270;28;20610;-78
2021/10/13 07:00:00;;;;;;;1.60;1.30;;;8.50;98.20;;;;;;4972649;28;20595;-78
2021/10/13 07:02:27;;;;;;;1.60;1.20;;;8.50;98.20;;;;;;4980503;28;20505;-77
2021/10/13 07:04:54;;;;;;;1.60;1.30;;;8.50;98.20;;;;;;4977225;28;21177;-77
2021/10/13 07:07:21;;;;;;;1.60;1.27;;;8.50;98.20;;;;;;4976272;28;20491;-78
2021/10/13 07:09:50;;;;;;;1.60;1.20;;;8.50;98.20;;;;;;4978601;28;20520;-77
2021/10/13 07:12:17;;;;;;;1.60;1.27;;;8.50;98.20;;;;;;4980441;28;20898;-77
2021/10/13 07:14:44;;;;;;;1.60;1.30;;;8.60;98.20;;;;;;4977363;28;20478;-77
2021/10/13 07:17:11;;;;;;;1.63;1.27;;;8.60;98.20;;;;;;4972592;28;20480;-77
2021/10/13 07:19:38;;;;;;;1.60;1.20;;;8.60;98.20;;;;;;4974729;28;20504;-79
2021/10/13 07:22:05;;;;;;;1.60;1.20;;;8.60;98.20;;;;;;4971859;28;20523;-79
2021/10/13 07:25:35;;;;;;;1.60;1.20;;;8.70;98.20;;;;;;4970344;28;20465;-81
2021/10/13 07:28:02;;;;;;;1.70;1.40;;;8.70;98.20;;;;;;4977661;28;20477;-81
2021/10/13 07:30:31;;;;;;;1.60;1.20;;;8.80;98.20;;;;;;4979540;28;20465;-78
2021/10/13 07:32:58;;;;;;;1.60;1.20;;;8.80;98.20;;;;;;4978250;28;21026;-80
2021/10/13 07:35:27;;;;;;;1.70;1.30;;;8.90;98.20;;;;;;4971961;28;20523;-79
2021/10/13 07:37:55;;;;;;;1.60;1.20;;;9.00;98.20;;;;;;4975352;28;21039;-80
2021/10/13 07:40:25;;;;;;;1.60;1.20;;;9.00;98.20;;;;;;4978130;28;20475;-80
2021/10/13 07:42:53;;;;;;;1.63;1.23;;;9.10;98.20;;;;;;4974112;28;20481;-79
2021/10/13 07:45:21;;;;;;;1.60;1.20;;;9.20;98.20;;;;;;4971107;28;20470;-80
2021/10/13 07:47:48;;;;;;;1.60;1.20;;;9.30;98.20;;;;;;4975358;28;20493;-80
2021/10/13 07:50:16;;;;;;;1.60;1.20;;;9.40;98.20;;;;;;4975389;28;20476;-80
2021/10/13 07:52:43;;;;;;;1.60;1.30;;;9.50;98.20;;;;;;4983126;28;20491;-78
2021/10/13 07:55:10;;;;;;;1.60;1.20;;;9.60;98.20;;;;;;4976832;28;20501;-80
2021/10/13 07:57:39;;;;;;;1.60;1.20;;;9.70;98.20;;;;;;4976497;28;20484;-80
2021/10/13 08:00:07;;;;;;;1.60;1.20;;;9.80;98.20;;;;;;4975979;28;20587;-78
2021/10/13 08:02:35;;;;;;;1.60;1.10;;;9.90;98.20;;;;;;4975998;28;20539;-79
2021/10/13 08:05:04;;;;;;;1.60;1.10;;;10.00;98.20;;;;;;4972550;28;20549;-78
2021/10/13 08:07:31;;;;;;;1.60;1.20;;;10.10;98.20;;;;;;4972210;28;20572;-78
2021/10/13 08:09:58;;;;;;;1.60;1.20;;;10.20;98.20;;;;;;4985979;28;20484;-80
2021/10/13 08:12:25;;;;;;;1.60;1.10;;;10.40;98.20;;;;;;4980497;28;20548;-79
2021/10/13 08:14:54;;;;;;;1.67;1.37;;;10.50;98.20;;;;;;4982396;28;20465;-80
2021/10/13 08:17:21;;;;;;;1.60;1.20;;;10.60;98.20;;;;;;4974121;28;20495;-79
2021/10/13 08:19:48;;;;;;;1.60;1.10;;;10.70;98.20;;;;;;4983297;28;20580;-78
2021/10/13 08:22:15;;;;;;;1.60;1.10;;;10.80;98.20;;;;;;4980417;28;20952;-79
2021/10/13 08:24:42;;;;;;;1.60;1.20;;;10.90;98.20;;;;;;4976936;28;20505;-74
2021/10/13 08:27:09;;;;;;;1.60;1.10;;;11.00;98.20;;;;;;4968902;28;20489;-76
2021/10/13 08:29:36;;;;;;;1.60;1.10;;;11.00;98.20;;;;;;4977748;28;20994;-77
2021/10/13 08:32:05;;;;;;;1.60;1.17;;;11.00;98.20;;;;;;4972477;28;20561;-77
2021/10/13 08:34:32;;;;;;;1.60;1.20;;;11.10;98.20;;;;;;4982490;28;20846;-77
2021/10/13 08:36:59;;;;;;;1.60;1.10;;;11.10;98.20;;;;;;4969297;28;20575;-76
2021/10/13 08:39:26;;;;;;;1.60;1.10;;;11.10;98.20;;;;;;4978134;28;20524;-76
2021/10/13 08:41:53;;;;;;;1.60;1.10;;;11.20;98.20;;;;;;4979750;28;20507;-76
2021/10/13 08:44:20;;;;;;;1.60;1.07;;;11.30;98.20;;;;;;4978688;28;20465;-76
2021/10/13 08:46:47;;;;;;;1.60;1.20;;;11.30;98.20;;;;;;4966820;28;20489;-77
2021/10/13 08:49:16;;;;;;;1.60;1.10;;;11.40;98.20;;;;;;4980597;28;20497;-77
2021/10/13 08:51:43;;;;;;;1.60;1.10;;;11.40;98.20;;;;;;4976168;28;20485;-77
2021/10/13 08:54:13;;;;;;;1.60;1.20;;;11.40;98.20;;;;;;4983391;28;20968;-77
2021/10/13 08:56:40;;;;;;;1.60;1.10;;;11.40;98.20;;;;;;4966369;28;20489;-78
2021/10/13 08:59:08;;;;;;;1.60;1.10;;;11.40;98.20;;;;;;4982827;28;20486;-78
2021/10/13 09:01:35;;;;;;;1.60;1.10;;;11.40;98.20;;;;;;4981974;28;20598;-77
2021/10/13 09:04:04;;;;;;;1.60;1.10;;;11.50;98.20;;;;;;4988328;28;20466;-77
2021/10/13 09:06:36;;;;;;;1.60;1.10;;;11.50;98.20;;;;;;4972631;28;20481;-79
2021/10/13 09:09:06;;;;;;;1.60;1.10;;;11.60;98.20;;;;;;4990279;28;20486;-76
2021/10/13 09:11:39;;;;;;;1.60;1.10;;;11.70;98.20;;;;;;4967396;28;20485;-77
2021/10/13 09:14:11;;;;;;;1.60;1.00;;;11.80;98.20;;;;;;4990242;28;20543;-76
2021/10/13 09:16:53;;;;;;;1.60;1.10;;;11.80;98.20;;;;;;4966948;28;20724;-76
2021/10/13 09:19:23;;;;;;;1.60;1.10;;;11.80;98.20;;;;;;4988996;28;20488;-76
2021/10/13 09:21:53;;;;;;;1.60;1.10;;;11.90;98.20;;;;;;4973729;28;20569;-76
2021/10/13 09:24:22;;;;;;;1.60;1.10;;;11.90;98.20;;;;;;4987611;28;20527;-76
2021/10/13 09:26:49;;;;;;;1.60;1.00;;;11.90;98.20;;;;;;4974191;28;20512;-77
2021/10/13 09:29:16;;;;;;;1.60;1.00;;;12.00;98.20;;;;;;4986843;28;20509;-76
2021/10/13 09:31:43;;;;;;;1.60;1.00;;;12.00;98.20;;;;;;4976933;28;21173;-76
2021/10/13 09:34:12;;;;;;;1.57;1.00;;;12.10;98.20;;;;;;4992210;28;20466;-76
2021/10/13 09:36:44;;;;;;;1.60;1.10;;;12.20;98.20;;;;;;4974945;28;20480;-80
2021/10/13 09:39:15;;;;;;;1.60;1.00;;;12.30;98.20;;;;;;4984557;28;20902;-79
2021/10/13 09:42:04;;;;;;;1.60;1.10;;;12.30;98.20;;;;;;4973298;28;20596;-79
2021/10/13 09:44:34;;;;;;;1.60;1.00;;;12.40;98.20;;;;;;4984727;28;20471;-80
2021/10/13 09:47:03;;;;;;;1.60;1.00;;;12.40;98.20;;;;;;4977449;28;21051;-79
2021/10/13 09:49:33;;;;;;;1.57;1.00;;;12.50;98.20;;;;;;4990372;28;20505;-79
2021/10/13 09:52:11;;;;;;;1.57;1.00;;;12.50;98.20;;;;;;4979511;28;20507;-80
2021/10/13 09:54:41;;;;;;;1.60;1.00;;;12.60;98.20;;;;;;4989048;28;20462;-79
2021/10/13 09:57:19;;;;;;;1.57;1.00;;;12.60;98.20;;;;;;4982549;28;20564;-77
2021/10/13 10:00:00;;;;;;;1.53;1.00;;;12.70;98.20;;;;;;4981957;28;20849;-75
2021/10/13 10:02:31;;;;;;;1.60;1.10;;;12.80;98.20;;;;;;4982706;28;20484;-76
2021/10/13 10:05:02;;;;;;;1.60;1.07;;;12.80;98.20;;;;;;4983516;28;20556;-76
2021/10/13 10:07:29;;;;;;;1.60;1.10;;;12.80;98.20;;;;;;4979782;28;20967;-77
2021/10/13 10:10:16;;;;;;;1.60;1.00;;;12.90;98.20;;;;;;4978105;28;20544;-76
2021/10/13 10:13:04;;;;;;;1.60;1.10;;;12.90;98.20;;;;;;4988038;28;20504;-77
2021/10/13 10:15:33;;;;;;;1.60;1.10;;;13.00;98.20;;;;;;4979428;28;20472;-76
2021/10/13 10:18:01;;;;;;;1.60;1.10;;;13.00;98.20;;;;;;4981895;28;20924;-76
2021/10/13 10:20:39;;;;;;;1.60;1.00;;;13.10;98.20;;;;;;4978753;28;20557;-76
2021/10/13 10:23:26;;;;;;;1.60;1.00;;;13.10;98.20;;;;;;4980295;28;20492;-76
2021/10/13 10:25:55;;;;;;;1.60;1.10;;;13.10;98.20;;;;;;4963240;28;20473;-77
2021/10/13 10:28:54;;;;;;;1.60;1.10;;;13.20;98.20;;;;;;4992482;28;20551;-76
2021/10/13 10:31:39;;;;;;;1.57;1.00;;;13.30;98.20;;;;;;4968428;28;20498;-75
2021/10/13 10:34:15;;;;;;;1.60;1.00;;;13.40;98.20;;;;;;4984709;28;20476;-76
2021/10/13 10:37:14;;;;;;;1.60;1.20;;;13.50;98.20;;;;;;4972352;28;20586;-76
2021/10/13 10:40:04;;;;;;;1.60;1.00;;;13.60;98.20;;;;;;4975175;28;21198;-76
2021/10/13 10:43:07;;;;;;;1.60;1.00;;;13.70;98.20;;;;;;4981756;28;20488;-77
2021/10/13 10:45:39;;;;;;;1.57;1.00;;;13.90;98.20;;;;;;4974653;28;20913;-76
2021/10/13 10:48:15;;;;;;;1.60;1.00;;;14.00;98.20;;;;;;4977991;28;20485;-76
2021/10/13 10:50:55;;;;;;;1.60;1.00;;;14.00;98.20;;;;;;4980768;28;20519;-75
2021/10/13 10:53:31;;;;;;;1.60;1.00;;;14.20;98.20;;;;;;4983964;28;20558;-75
2021/10/13 10:56:32;;;;;;;1.60;1.00;;;14.30;98.20;;;;;;4971842;28;20528;-78
2021/10/13 10:59:12;;;;;;;1.60;1.00;;;14.60;98.20;;;;;;4989594;28;20512;-78
2021/10/13 11:01:40;;;;;;;1.60;1.00;;;14.80;98.20;;;;;;4982888;28;20490;-77
2021/10/13 11:04:08;;;;;;;1.60;1.00;;;14.90;98.20;;;;;;4989622;28;20484;-80
2021/10/13 11:06:36;;;;;;;1.60;1.10;;;14.80;98.20;;;;;;4973021;28;20552;-76
2021/10/13 11:09:07;;;;;;;1.60;1.00;;;14.80;98.20;;;;;;4988981;28;20557;-78
2021/10/13 11:11:37;;;;;;;1.60;1.00;;;14.80;98.20;;;;;;4987261;28;20538;-78
2021/10/13 11:14:07;;;;;;;1.60;1.20;;;14.70;98.20;;;;;;4992987;28;20519;-77
2021/10/13 11:16:37;;;;;;;1.60;1.00;;;14.60;98.20;;;;;;4976432;28;20500;-77
2021/10/13 11:19:15;;;;;;;1.60;1.00;;;14.50;98.20;;;;;;4992969;28;20536;-78
2021/10/13 11:21:43;;;;;;;1.53;1.00;;;14.50;98.20;;;;;;4984003;28;20502;-78
2021/10/13 11:24:10;;;;;;;1.50;0.93;;;14.30;98.20;;;;;;4998605;28;20469;-78
2021/10/13 11:26:37;;;;;;;1.53;1.00;;;14.10;98.20;;;;;;4972721;28;20551;-77
2021/10/13 11:29:19;;;;;;;1.50;1.00;;;14.00;98.20;;;;;;4987370;28;20922;-78
2021/10/13 11:31:48;;;;;;;1.57;1.00;;;14.00;98.20;;;;;;4973262;28;21048;-77
2021/10/13 11:34:19;;;;;;;1.60;1.07;;;13.90;98.20;;;;;;4989334;28;20460;-78
2021/10/13 11:36:51;;;;;;;1.53;1.00;;;13.80;98.20;;;;;;4974860;28;20612;-78
2021/10/13 11:39:27;;;;;;;1.70;1.60;;;13.70;98.20;;;;;;4996240;28;20562;-77
2021/10/13 11:41:55;;;;;;;1.60;1.00;;;13.70;98.20;;;;;;4979768;28;20520;-79
2021/10/13 11:44:24;;;;;;;1.50;1.00;;;13.70;98.20;;;;;;4995516;28;20544;-76
2021/10/13 11:47:02;;;;;;;1.60;1.00;;;13.80;98.20;;;;;;4976769;28;20492;-77
2021/10/13 11:49:30;;;;;;;1.60;1.07;;;13.90;98.20;;;;;;4987486;28;20486;-78
2021/10/13 11:52:08;;;;;;;1.57;1.00;;;14.00;98.20;;;;;;4982882;28;20487;-76
2021/10/13 11:54:35;;;;;;;1.53;1.00;;;14.10;98.20;;;;;;4988878;28;20795;-76
2021/10/13 11:57:03;;;;;;;1.57;1.00;;;14.20;98.20;;;;;;4980566;28;20480;-78
2021/10/13 11:59:30;;;;;;;1.57;1.03;;;14.30;98.20;;;;;;4986219;28;20513;-80
2021/10/13 12:02:12;;;;;;;1.53;1.00;;;14.50;98.20;;;;;;4978349;28;20507;-76
2021/10/13 12:04:49;;;;;;;1.57;1.00;;;14.80;98.20;;;;;;4984383;28;20500;-78
2021/10/13 12:07:18;;;;;;;1.60;1.10;;;15.00;98.20;;;;;;4988987;28;20539;-77
2021/10/13 12:09:48;;;;;;;1.53;1.00;;;15.20;98.20;;;;;;4986820;28;20488;-77
2021/10/13 12:12:17;;;;;;;1.57;1.00;;;15.20;98.20;;;;;;4983111;28;21265;-77
2021/10/13 12:14:45;;;;;;;1.60;1.00;;;15.40;98.20;;;;;;4976581;28;20910;-76
2021/10/13 12:17:30;;;;;;;1.60;1.00;;;15.60;98.20;;;;;;4978407;28;20524;-79
2021/10/13 12:19:59;;;;;;;1.60;1.00;;;15.80;97.80;;;;;;4990825;28;20473;-77
2021/10/13 12:22:26;;;;;;;1.57;0.97;;;15.90;98.00;;;;;;4984691;28;21094;-78
2021/10/13 12:24:54;;;;;;;1.57;1.00;;;15.90;96.70;;;;;;4980404;28;20525;-77
2021/10/13 12:27:29;;;;;;;1.60;1.00;;;15.90;96.70;;;;;;4985342;28;20487;-76
2021/10/13 12:29:58;;;;;;;1.57;1.00;;;15.90;97.40;;;;;;4992649;28;20968;-77
2021/10/13 12:32:27;;;;;;;1.60;1.00;;;15.80;98.20;;;;;;4974370;28;20513;-78
2021/10/13 12:34:55;;;;;;;1.53;0.93;;;15.70;97.70;;;;;;4990210;28;20531;-78
2021/10/13 12:37:26;;;;;;;1.53;0.97;;;15.60;98.20;;;;;;4987585;28;20763;-77
2021/10/13 12:39:53;;;;;;;1.53;1.00;;;15.70;98.20;;;;;;4964571;28;20915;-76
2021/10/13 12:42:26;;;;;;;1.60;1.00;;;15.70;96.70;;;;;;4980113;28;20742;-77
2021/10/13 12:45:00;;;;;;;1.57;1.00;;;15.60;96.80;;;;;;4988873;28;20953;-76
2021/10/13 12:47:28;;;;;;;1.57;1.00;;;15.50;98.20;;;;;;4977611;28;20480;-77
2021/10/13 12:50:00;;;;;;;1.60;1.10;;;15.50;98.20;;;;;;4976174;28;20481;-76
2021/10/13 12:52:28;;;;;;;1.57;1.00;;;15.50;98.20;;;;;;4981262;28;20996;-78
2021/10/13 12:54:56;;;;;;;1.57;1.00;;;15.50;98.20;;;;;;4981130;28;20544;-77
2021/10/13 12:57:26;;;;;;;1.60;1.10;;;15.50;98.20;;;;;;4983624;28;20538;-77
2021/10/13 12:59:53;;;;;;;1.60;1.10;;;15.50;98.20;;;;;;4994972;28;20988;-77
2021/10/13 13:02:20;;;;;;;1.60;1.00;;;15.50;98.20;;;;;;4980124;28;20488;-75
2021/10/13 13:04:49;;;;;;;1.53;1.00;;;15.40;98.20;;;;;;4989273;28;20932;-77
2021/10/13 13:07:16;;;;;;;1.60;1.00;;;15.40;97.30;;;;;;4982555;28;20476;-77